Time;durP1;ratioP1;P1;durP2;ratioP2;P2;SDS_P1;SDS_P2;PMS_P1;PMS_P2;Temp;Humidity;BMP_temperature;BMP_pressure;BME280_temperature;BME280_humidity;BME280_pressure;Samples;Min_cycle;Max_cycle;Signal;HPM_P1;HPM_P2
2022/04/25 00:01:11;;;;;;;4.97;2.95;;;15.10;77.90;;;;;;4996912;28;20085;-75
2022/04/25 00:03:37;;;;;;;4.65;2.83;;;15.10;77.90;;;;;;5005949;28;20105;-75
2022/04/25 00:06:03;;;;;;;5.60;3.13;;;15.10;78.00;;;;;;5011304;28;20026;-75
2022/04/25 00:08:29;;;;;;;5.90;3.30;;;15.10;78.00;;;;;;5012161;28;20448;-76
2022/04/25 00:10:55;;;;;;;5.30;3.13;;;15.10;78.50;;;;;;5011600;28;20030;-76
2022/04/25 00:13:20;;;;;;;6.40;3.10;;;15.10;78.10;;;;;;5012519;28;20069;-76
2022/04/25 00:15:46;;;;;;;5.40;3.10;;;15.10;78.00;;;;;;5012953;28;20052;-76
2022/04/25 00:18:11;;;;;;;5.68;3.10;;;15.10;78.00;;;;;;5012207;28;20500;-75
2022/04/25 00:20:37;;;;;;;5.57;3.35;;;15.00;78.00;;;;;;5012615;28;20030;-76
2022/04/25 00:23:05;;;;;;;5.55;2.90;;;15.10;78.00;;;;;;5012402;28;20113;-76
2022/04/25 00:25:32;;;;;;;6.22;3.30;;;15.10;78.10;;;;;;5012777;28;20029;-76
2022/04/25 00:27:58;;;;;;;5.60;3.25;;;15.10;78.10;;;;;;5012031;28;20018;-76
2022/04/25 00:30:24;;;;;;;5.40;2.90;;;15.10;78.10;;;;;;5012129;28;20083;-75
2022/04/25 00:32:50;;;;;;;6.28;3.38;;;15.10;78.10;;;;;;5013365;28;20014;-76
2022/04/25 00:35:16;;;;;;;5.72;3.38;;;15.10;78.10;;;;;;5013048;28;20501;-76
2022/04/25 00:37:42;;;;;;;4.90;2.83;;;15.10;78.10;;;;;;5011997;28;20022;-74
2022/04/25 00:40:08;;;;;;;5.45;3.05;;;15.10;78.10;;;;;;5011982;28;20029;-76
2022/04/25 00:42:34;;;;;;;5.18;2.90;;;15.10;78.10;;;;;;5012206;28;20025;-76
2022/04/25 00:45:00;;;;;;;5.50;3.08;;;15.10;78.10;;;;;;5013737;28;20026;-76
2022/04/25 00:47:27;;;;;;;5.38;3.08;;;15.10;78.10;;;;;;5012014;28;20032;-76
2022/04/25 00:49:53;;;;;;;4.80;2.85;;;15.10;78.10;;;;;;5012307;28;20029;-74
2022/04/25 00:52:19;;;;;;;5.82;3.10;;;15.10;78.10;;;;;;5010859;28;20033;-76
2022/04/25 00:54:44;;;;;;;5.80;3.03;;;15.10;78.10;;;;;;5011854;28;20030;-76
2022/04/25 00:57:11;;;;;;;4.70;2.72;;;15.10;78.10;;;;;;5010973;28;20021;-76
2022/04/25 00:59:37;;;;;;;5.85;3.00;;;15.10;78.10;;;;;;5012242;28;20036;-75
2022/04/25 01:02:03;;;;;;;6.20;3.60;;;15.10;78.10;;;;;;5011655;28;20074;-76
2022/04/25 01:04:29;;;;;;;5.68;3.40;;;15.10;78.10;;;;;;5013244;28;20018;-76
2022/04/25 01:06:54;;;;;;;5.40;3.13;;;15.10;78.10;;;;;;5012078;28;20460;-76
2022/04/25 01:09:20;;;;;;;5.22;3.10;;;15.10;78.10;;;;;;5012446;28;20053;-75
2022/04/25 01:11:46;;;;;;;5.13;3.00;;;15.10;78.10;;;;;;5011442;28;20021;-75
2022/04/25 01:14:19;;;;;;;5.43;3.17;;;15.10;78.10;;;;;;5011527;28;20508;-76
2022/04/25 01:16:45;;;;;;;4.97;2.88;;;15.00;78.00;;;;;;5011340;28;20022;-76
2022/04/25 01:19:11;;;;;;;6.10;3.72;;;15.10;78.10;;;;;;5008103;28;20494;-74
2022/04/25 01:22:00;;;;;;;5.90;3.20;;;15.10;78.10;;;;;;4991375;28;20030;-76
2022/04/25 01:27:17;;;;;;;5.15;3.00;;;15.10;77.90;;;;;;4992861;28;20461;-76
2022/04/25 01:30:01;;;;;;;6.43;3.10;;;15.10;77.80;;;;;;4991791;28;20065;-76
2022/04/25 01:32:40;;;;;;;5.07;2.97;;;15.10;77.70;;;;;;4991840;28;20030;-75
2022/04/25 01:35:06;;;;;;;5.05;3.00;;;15.20;77.60;;;;;;4991188;28;20026;-76
2022/04/25 01:37:32;;;;;;;4.93;2.85;;;15.20;77.50;;;;;;5010797;28;20489;-76
2022/04/25 01:39:57;;;;;;;5.70;3.33;;;15.20;77.40;;;;;;5012267;28;20093;-76
2022/04/25 01:42:24;;;;;;;5.03;2.80;;;15.20;77.30;;;;;;5010328;28;20489;-77
2022/04/25 01:44:50;;;;;;;5.50;3.05;;;15.20;77.30;;;;;;5011712;28;20018;-76
2022/04/25 01:47:16;;;;;;;5.07;3.03;;;15.30;77.30;;;;;;5008270;28;20037;-76
2022/04/25 01:49:42;;;;;;;5.35;2.97;;;15.30;77.20;;;;;;5011158;28;20030;-76
2022/04/25 01:52:16;;;;;;;5.18;2.92;;;15.30;77.20;;;;;;5011003;28;20559;-76
2022/04/25 01:54:43;;;;;;;5.13;2.80;;;15.30;77.30;;;;;;5011575;28;20057;-77
2022/04/25 01:57:08;;;;;;;5.90;2.78;;;15.30;77.20;;;;;;5010096;28;20071;-76
2022/04/25 01:59:35;;;;;;;6.65;2.88;;;15.30;77.20;;;;;;5012504;28;20034;-76
2022/04/25 02:02:01;;;;;;;5.47;3.08;;;15.20;77.20;;;;;;5011975;28;20022;-76
2022/04/25 02:04:27;;;;;;;5.07;2.83;;;15.20;77.40;;;;;;5009973;28;20026;-76
2022/04/25 02:06:53;;;;;;;5.30;3.03;;;15.20;77.50;;;;;;5003352;28;20486;-76
2022/04/25 02:09:20;;;;;;;5.13;2.70;;;15.10;77.60;;;;;;5009695;28;20030;-76
2022/04/25 02:11:46;;;;;;;5.30;2.95;;;15.20;77.70;;;;;;5010650;28;20029;-75
2022/04/25 02:14:11;;;;;;;4.40;2.47;;;15.10;77.80;;;;;;5010492;28;20577;-76
2022/04/25 02:16:37;;;;;;;5.82;3.00;;;15.10;77.90;;;;;;5010269;28;20036;-75
2022/04/25 02:19:03;;;;;;;4.60;2.75;;;15.10;78.00;;;;;;5011932;28;20022;-76
2022/04/25 02:21:28;;;;;;;4.95;2.90;;;15.10;78.10;;;;;;5010588;28;20021;-76
2022/04/25 02:23:54;;;;;;;5.38;3.00;;;15.10;78.70;;;;;;5012058;28;20539;-76
2022/04/25 02:26:19;;;;;;;5.00;2.90;;;15.00;78.10;;;;;;5011731;28;20029;-76
2022/04/25 02:28:45;;;;;;;6.28;3.00;;;15.10;78.20;;;;;;5011231;28;20022;-76
2022/04/25 02:31:10;;;;;;;4.95;2.92;;;15.00;78.20;;;;;;5005768;28;20038;-76
2022/04/25 02:33:36;;;;;;;6.55;3.10;;;15.00;78.20;;;;;;5014219;28;20481;-73
2022/04/25 02:36:06;;;;;;;5.60;3.00;;;15.00;78.20;;;;;;5014193;28;20055;-76
2022/04/25 02:38:33;;;;;;;4.47;2.83;;;15.10;78.30;;;;;;5015889;28;20033;-76
2022/04/25 02:41:05;;;;;;;5.15;3.00;;;15.00;78.30;;;;;;5014425;28;20485;-76
2022/04/25 02:43:32;;;;;;;5.22;3.05;;;15.00;78.30;;;;;;5015113;28;20030;-76
2022/04/25 02:45:57;;;;;;;4.68;2.90;;;15.00;78.30;;;;;;5014064;28;20049;-74
2022/04/25 02:48:23;;;;;;;5.90;3.03;;;14.90;78.20;;;;;;5015517;28;20657;-76
2022/04/25 02:50:48;;;;;;;5.18;3.10;;;15.00;78.30;;;;;;5015778;28;20500;-75
2022/04/25 02:53:14;;;;;;;5.40;3.10;;;15.00;78.30;;;;;;5015479;28;20033;-76
2022/04/25 02:55:40;;;;;;;5.60;3.20;;;15.00;78.40;;;;;;5015305;28;20088;-76
2022/04/25 02:58:06;;;;;;;5.57;3.03;;;15.00;78.40;;;;;;5015737;28;20448;-76
2022/04/25 03:00:31;;;;;;;4.63;2.78;;;15.00;78.30;;;;;;5014593;28;20025;-76
2022/04/25 03:02:57;;;;;;;6.72;3.63;;;15.00;78.30;;;;;;5015887;28;20032;-76
2022/04/25 03:05:22;;;;;;;4.82;2.92;;;15.00;78.40;;;;;;5014494;28;20026;-76
2022/04/25 03:07:48;;;;;;;6.50;3.33;;;15.00;78.40;;;;;;5015595;28;20026;-76
2022/04/25 03:10:14;;;;;;;5.75;3.35;;;15.00;78.30;;;;;;5013877;28;20345;-76
2022/04/25 03:12:39;;;;;;;5.78;3.00;;;15.00;78.30;;;;;;5014077;28;20109;-75
2022/04/25 03:15:05;;;;;;;5.45;3.40;;;15.00;78.30;;;;;;5014653;28;20112;-76
2022/04/25 03:17:31;;;;;;;5.22;3.10;;;15.00;78.30;;;;;;5011786;28;20088;-76
2022/04/25 03:19:56;;;;;;;6.25;3.63;;;15.00;78.40;;;;;;5010746;28;20022;-76
2022/04/25 03:22:21;;;;;;;5.82;3.55;;;14.90;78.30;;;;;;4994127;28;20026;-77
2022/04/25 03:24:47;;;;;;;5.13;3.10;;;15.00;78.40;;;;;;4994578;28;20080;-76
2022/04/25 03:27:12;;;;;;;5.40;3.28;;;15.00;78.30;;;;;;4994951;28;20022;-76
2022/04/25 03:29:38;;;;;;;5.93;3.20;;;15.00;78.40;;;;;;5014894;28;20503;-74
2022/04/25 03:32:04;;;;;;;5.13;2.90;;;15.00;78.90;;;;;;5013318;28;20033;-76
2022/04/25 03:34:30;;;;;;;6.38;3.50;;;15.00;78.40;;;;;;5013409;28;20030;-76
2022/04/25 03:36:56;;;;;;;5.57;2.97;;;15.00;78.40;;;;;;5012552;28;20110;-77
2022/04/25 03:39:21;;;;;;;5.45;3.38;;;15.00;78.40;;;;;;5014339;28;20065;-76
2022/04/25 03:41:48;;;;;;;5.63;3.30;;;15.00;78.30;;;;;;5013682;28;20029;-74
2022/04/25 03:44:13;;;;;;;5.53;3.40;;;15.00;78.40;;;;;;5014506;28;20097;-76
2022/04/25 03:46:39;;;;;;;5.18;3.08;;;15.00;78.40;;;;;;5013493;28;20037;-76
2022/04/25 03:49:05;;;;;;;6.00;3.20;;;15.00;78.40;;;;;;5011817;28;20029;-76
2022/04/25 03:51:30;;;;;;;6.10;3.00;;;15.00;78.40;;;;;;5013322;28;20032;-76
2022/04/25 03:53:56;;;;;;;6.35;3.75;;;15.00;78.30;;;;;;5013246;28;20061;-76
2022/04/25 03:57:21;;;;;;;5.70;3.42;;;15.00;78.20;;;;;;5012845;28;20377;-77
2022/04/25 03:59:16;;;;;;;6.18;3.47;;;15.00;78.10;;;;;;5013228;28;20038;-76
2022/04/25 04:01:42;;;;;;;5.70;3.40;;;15.10;78.00;;;;;;5010467;28;20405;-76
2022/04/25 04:04:07;;;;;;;5.03;2.92;;;15.10;77.90;;;;;;5013033;28;20448;-76
2022/04/25 04:06:33;;;;;;;5.03;3.05;;;15.20;77.80;;;;;;5011674;28;20022;-74
2022/04/25 04:08:59;;;;;;;4.97;2.92;;;15.20;77.70;;;;;;5011602;28;20504;-77
2022/04/25 04:11:46;;;;;;;5.30;3.28;;;15.20;77.60;;;;;;5012471;28;20117;-76
2022/04/25 04:14:10;;;;;;;5.13;3.08;;;15.20;77.60;;;;;;5013584;28;20120;-77
2022/04/25 04:16:36;;;;;;;4.78;2.97;;;15.20;77.50;;;;;;5012518;28;20045;-76
2022/04/25 04:19:01;;;;;;;5.13;3.08;;;15.20;78.00;;;;;;5011357;28;20033;-76
2022/04/25 04:21:27;;;;;;;5.88;3.35;;;15.20;77.50;;;;;;5012203;28;20029;-76
2022/04/25 04:23:52;;;;;;;4.80;2.90;;;15.10;77.50;;;;;;5012391;28;20018;-75
2022/04/25 04:26:18;;;;;;;6.60;3.55;;;15.20;77.50;;;;;;5012643;28;20036;-76
2022/04/25 04:28:43;;;;;;;5.57;3.50;;;15.20;77.50;;;;;;5012654;28;20022;-76
2022/04/25 04:31:09;;;;;;;5.32;2.90;;;15.10;77.50;;;;;;5012453;28;20037;-73
2022/04/25 04:33:35;;;;;;;5.60;3.40;;;15.20;77.60;;;;;;5012284;28;20072;-76
2022/04/25 04:36:19;;;;;;;4.68;2.83;;;15.20;77.70;;;;;;5012189;28;20028;-75
2022/04/25 04:38:47;;;;;;;5.95;3.30;;;15.10;77.80;;;;;;5013275;28;20026;-76
2022/04/25 04:41:13;;;;;;;5.40;3.25;;;15.10;77.90;;;;;;5002750;28;20030;-76
2022/04/25 04:43:38;;;;;;;5.85;3.35;;;15.10;78.10;;;;;;4989159;28;20223;-75
2022/04/25 04:46:04;;;;;;;5.20;3.30;;;15.00;78.10;;;;;;4999205;28;20548;-76
2022/04/25 04:48:29;;;;;;;5.40;3.53;;;15.10;78.20;;;;;;5008376;28;20075;-75
2022/04/25 04:50:56;;;;;;;5.57;3.03;;;15.10;78.30;;;;;;5009487;28;20025;-76
2022/04/25 04:53:22;;;;;;;5.65;3.20;;;15.00;78.40;;;;;;5008380;28;20025;-75
2022/04/25 04:55:49;;;;;;;5.57;3.42;;;15.00;78.50;;;;;;5008985;28;20018;-76
2022/04/25 04:58:14;;;;;;;5.53;3.28;;;14.90;78.50;;;;;;5028058;28;20060;-75
2022/04/25 05:00:44;;;;;;;6.05;3.28;;;15.00;78.60;;;;;;5028212;28;20049;-73
2022/04/25 05:03:15;;;;;;;5.90;3.20;;;15.00;78.60;;;;;;5027970;28;20028;-73
2022/04/25 05:05:42;;;;;;;6.22;3.80;;;15.00;78.60;;;;;;5015251;28;20117;-75
2022/04/25 05:08:07;;;;;;;6.10;3.42;;;15.00;78.60;;;;;;5015261;28;20021;-75
2022/04/25 05:10:33;;;;;;;5.70;3.40;;;15.00;78.60;;;;;;5029211;28;20560;-76
2022/04/25 05:12:58;;;;;;;5.95;3.70;;;14.90;78.60;;;;;;5028798;28;20080;-74
2022/04/25 05:15:24;;;;;;;5.85;3.33;;;15.00;78.60;;;;;;5027404;28;20937;-75
2022/04/25 05:17:53;;;;;;;5.75;3.33;;;14.90;78.60;;;;;;5019980;28;20022;-74
2022/04/25 05:20:20;;;;;;;5.30;3.25;;;15.00;78.70;;;;;;5004008;28;20015;-74
2022/04/25 05:22:47;;;;;;;5.85;3.50;;;15.00;78.70;;;;;;5007810;28;20108;-74
2022/04/25 05:25:21;;;;;;;6.15;3.83;;;15.00;78.70;;;;;;5007971;28;20037;-74
2022/04/25 05:27:49;;;;;;;6.03;3.80;;;14.90;78.60;;;;;;5006293;28;20026;-72
2022/04/25 05:30:17;;;;;;;5.38;3.60;;;14.90;78.60;;;;;;5007181;28;20022;-74
2022/04/25 05:32:51;;;;;;;7.25;4.05;;;14.90;78.60;;;;;;5006128;28;20033;-73
2022/04/25 05:35:19;;;;;;;5.88;3.47;;;14.90;78.60;;;;;;5009317;28;20053;-73
2022/04/25 05:37:45;;;;;;;6.50;3.55;;;14.90;78.60;;;;;;5010501;28;20119;-72
2022/04/25 05:40:13;;;;;;;6.00;3.60;;;14.90;78.60;;;;;;5011853;28;20073;-73
2022/04/25 05:42:40;;;;;;;5.05;3.22;;;15.00;78.60;;;;;;5009392;28;20100;-72
2022/04/25 05:45:08;;;;;;;6.63;3.42;;;15.00;78.50;;;;;;5010791;28;20029;-72
2022/04/25 05:47:34;;;;;;;6.88;3.75;;;14.90;78.50;;;;;;5009346;28;20076;-72
2022/04/25 05:52:49;;;;;;;6.18;3.45;;;15.00;78.70;;;;;;5011908;28;20468;-72
2022/04/25 05:55:14;;;;;;;5.43;3.35;;;14.90;78.60;;;;;;5010492;28;20026;-73
2022/04/25 05:57:40;;;;;;;5.00;3.10;;;14.90;78.60;;;;;;5010525;28;20041;-72
2022/04/25 06:00:07;;;;;;;5.45;3.47;;;15.00;78.60;;;;;;5010273;28;20064;-73
2022/04/25 06:02:40;;;;;;;6.15;3.40;;;15.00;78.50;;;;;;5011228;28;20056;-70
2022/04/25 06:05:07;;;;;;;6.43;3.83;;;15.00;78.50;;;;;;5011535;28;20097;-72
2022/04/25 06:07:33;;;;;;;5.40;3.33;;;15.00;78.50;;;;;;5009254;28;20029;-73
2022/04/25 06:10:00;;;;;;;6.38;4.00;;;14.90;78.50;;;;;;5010391;28;20498;-73
2022/04/25 06:12:26;;;;;;;6.53;3.85;;;15.00;78.60;;;;;;5009976;28;20037;-72
2022/04/25 06:14:56;;;;;;;7.25;4.25;;;14.90;78.50;;;;;;5011444;28;20078;-72
2022/04/25 06:17:22;;;;;;;6.40;3.65;;;15.00;78.50;;;;;;5009479;28;20177;-71
2022/04/25 06:19:48;;;;;;;6.47;3.95;;;14.90;78.50;;;;;;5011647;28;20079;-73
2022/04/25 06:22:14;;;;;;;6.03;3.83;;;15.00;78.50;;;;;;5009863;28;20132;-71
2022/04/25 06:24:39;;;;;;;7.30;4.57;;;14.90;78.50;;;;;;5011254;28;20030;-72
2022/04/25 06:27:09;;;;;;;6.28;3.60;;;14.90;78.50;;;;;;5011093;28;20026;-73
2022/04/25 06:29:35;;;;;;;7.45;3.83;;;15.00;78.40;;;;;;5011360;28;20026;-72
2022/04/25 06:32:03;;;;;;;6.00;3.67;;;14.90;78.30;;;;;;5010053;28;20396;-73
2022/04/25 06:34:28;;;;;;;6.72;3.80;;;15.00;78.20;;;;;;5009984;28;20473;-72
2022/04/25 06:36:54;;;;;;;5.78;3.58;;;15.00;78.10;;;;;;5009568;28;20119;-72
2022/04/25 06:39:19;;;;;;;5.85;3.58;;;15.10;78.00;;;;;;5010985;28;20101;-73
2022/04/25 06:41:46;;;;;;;6.05;3.65;;;15.00;77.80;;;;;;5011071;28;20030;-72
2022/04/25 06:44:12;;;;;;;5.75;3.70;;;15.10;77.80;;;;;;5009623;28;20018;-72
2022/04/25 06:46:37;;;;;;;5.60;3.40;;;15.10;77.60;;;;;;5009729;28;20032;-72
2022/04/25 06:49:23;;;;;;;5.80;3.53;;;15.10;77.50;;;;;;5009439;28;20026;-71
2022/04/25 06:51:53;;;;;;;6.32;3.60;;;15.10;77.50;;;;;;5011005;28;20022;-73
2022/04/25 06:54:20;;;;;;;5.53;3.40;;;15.10;77.50;;;;;;5011067;28;20389;-72
2022/04/25 06:56:45;;;;;;;6.13;3.50;;;15.20;77.60;;;;;;5011369;28;20026;-73
2022/04/25 06:59:11;;;;;;;5.85;3.80;;;15.10;78.10;;;;;;5009325;28;20088;-73
2022/04/25 07:01:39;;;;;;;6.00;3.50;;;15.10;77.60;;;;;;5010866;28;20033;-72
2022/04/25 07:04:05;;;;;;;6.03;3.55;;;15.10;77.60;;;;;;5009607;28;20026;-69
2022/04/25 07:06:30;;;;;;;5.80;3.30;;;15.10;77.60;;;;;;5010522;28;20080;-72
2022/04/25 07:08:55;;;;;;;5.30;3.42;;;15.10;77.80;;;;;;5009542;28;20025;-73
2022/04/25 07:11:21;;;;;;;5.90;3.50;;;15.00;77.80;;;;;;5010909;28;20037;-72
2022/04/25 07:13:46;;;;;;;6.05;3.55;;;15.00;77.90;;;;;;5009534;28;20030;-72
2022/04/25 07:16:13;;;;;;;5.68;3.22;;;15.00;77.90;;;;;;5010780;28;20034;-73
2022/04/25 07:18:39;;;;;;;5.95;3.72;;;15.00;78.10;;;;;;5011419;28;20084;-72
2022/04/25 07:29:23;;;;;;;5.22;3.38;;;15.00;78.40;;;;;;5014159;28;20053;-74
2022/04/25 07:31:51;;;;;;;6.20;3.50;;;14.90;78.50;;;;;;5012832;28;20025;-72
2022/04/25 07:34:20;;;;;;;5.80;3.42;;;15.00;78.50;;;;;;5015481;28;20026;-70
2022/04/25 07:36:51;;;;;;;6.63;3.70;;;14.90;78.50;;;;;;5012613;28;20072;-71
2022/04/25 07:39:18;;;;;;;5.53;3.53;;;14.90;78.40;;;;;;5013834;28;20673;-72
2022/04/25 07:41:44;;;;;;;6.25;3.65;;;14.90;78.50;;;;;;5012665;28;20026;-72
2022/04/25 07:44:10;;;;;;;6.28;3.80;;;14.90;78.50;;;;;;5012584;28;20018;-73
2022/04/25 07:46:36;;;;;;;6.65;3.67;;;14.90;78.50;;;;;;5013488;28;20018;-73
2022/04/25 07:49:01;;;;;;;6.85;3.60;;;14.90;78.40;;;;;;5012284;28;20180;-73
2022/04/25 07:51:27;;;;;;;6.50;3.90;;;14.90;78.40;;;;;;5012952;28;20037;-71
2022/04/25 07:53:52;;;;;;;7.03;3.90;;;14.90;78.50;;;;;;5014303;28;20061;-72
2022/04/25 07:56:18;;;;;;;6.28;3.80;;;14.90;78.40;;;;;;5013770;28;20108;-72
2022/04/25 07:58:45;;;;;;;5.65;3.28;;;14.90;78.50;;;;;;5013015;28;20146;-72
2022/04/25 08:01:10;;;;;;;5.40;3.50;;;14.90;78.50;;;;;;5012276;28;20030;-72
2022/04/25 08:03:36;;;;;;;5.82;3.92;;;14.90;78.50;;;;;;5013397;28;20018;-71
2022/04/25 08:06:02;;;;;;;6.45;3.78;;;14.90;78.50;;;;;;5013376;28;20026;-72
2022/04/25 08:08:27;;;;;;;6.57;3.67;;;14.90;78.50;;;;;;5007795;28;20092;-71
2022/04/25 08:10:52;;;;;;;5.88;3.50;;;14.80;78.40;;;;;;5012435;28;20084;-73
2022/04/25 08:18:46;;;;;;;6.32;3.85;;;14.90;78.40;;;;;;5013511;28;20512;-68
2022/04/25 08:21:13;;;;;;;5.50;3.58;;;14.90;78.40;;;;;;5011735;28;20030;-72
2022/04/25 08:23:40;;;;;;;6.18;3.60;;;14.90;78.40;;;;;;5012009;28;20060;-72
2022/04/25 08:26:06;;;;;;;6.07;3.45;;;14.90;78.40;;;;;;5011643;28;20026;-72
2022/04/25 08:28:31;;;;;;;5.85;3.80;;;14.90;78.40;;;;;;5012813;28;20034;-72
2022/04/25 08:30:57;;;;;;;6.25;3.92;;;14.80;78.30;;;;;;5011896;28;20551;-69
2022/04/25 08:33:22;;;;;;;5.82;3.47;;;14.90;78.40;;;;;;5011575;28;20481;-72
2022/04/25 08:35:48;;;;;;;6.25;3.60;;;14.90;78.30;;;;;;5012738;28;20054;-72
2022/04/25 08:38:13;;;;;;;5.38;3.22;;;14.90;78.40;;;;;;5011257;28;20025;-73
2022/04/25 08:40:40;;;;;;;5.60;3.60;;;14.90;78.40;;;;;;5011366;28;20088;-72
2022/04/25 08:43:06;;;;;;;6.10;3.42;;;14.90;78.30;;;;;;5011508;28;20071;-72
2022/04/25 08:45:32;;;;;;;6.70;3.70;;;14.90;78.30;;;;;;5012300;28;20109;-71
2022/04/25 08:48:00;;;;;;;5.80;3.55;;;14.90;78.40;;;;;;5012258;28;20100;-69
2022/04/25 08:50:27;;;;;;;6.25;3.70;;;14.90;78.30;;;;;;5012690;28;20394;-72
2022/04/25 08:52:54;;;;;;;6.22;3.72;;;14.90;78.30;;;;;;5012612;28;20512;-72
2022/04/25 08:55:21;;;;;;;6.72;3.83;;;14.90;78.30;;;;;;5011178;28;20030;-72
2022/04/25 08:57:50;;;;;;;5.45;3.47;;;14.90;78.30;;;;;;5011023;28;20060;-70
2022/04/25 09:00:16;;;;;;;6.80;4.18;;;14.80;78.20;;;;;;5012158;28;20044;-72
2022/04/25 09:02:42;;;;;;;5.55;3.33;;;15.00;78.40;;;;;;5011039;28;20029;-72
2022/04/25 09:05:09;;;;;;;6.13;3.65;;;14.90;78.20;;;;;;5012231;28;20393;-70
2022/04/25 09:07:37;;;;;;;6.68;3.67;;;15.00;78.20;;;;;;5010635;28;20072;-72
2022/04/25 09:10:14;;;;;;;6.20;3.80;;;15.00;78.10;;;;;;5012428;28;20050;-72
2022/04/25 09:12:42;;;;;;;5.88;3.50;;;15.00;78.00;;;;;;5010833;28;20118;-72
2022/04/25 09:15:09;;;;;;;6.13;3.80;;;15.00;77.90;;;;;;5010865;28;20117;-72
2022/04/25 09:17:38;;;;;;;6.13;3.70;;;15.10;77.80;;;;;;5011846;28;20504;-72
2022/04/25 09:20:05;;;;;;;6.45;3.72;;;15.10;77.70;;;;;;5011962;28;20018;-72
2022/04/25 09:22:36;;;;;;;6.47;3.80;;;15.10;77.70;;;;;;5011580;28;20045;-72
2022/04/25 09:25:10;;;;;;;6.13;3.38;;;15.10;77.60;;;;;;5009057;28;20714;-72
2022/04/25 09:27:36;;;;;;;5.38;3.50;;;15.10;77.60;;;;;;5024550;28;20112;-72
2022/04/25 09:30:31;;;;;;;5.38;3.58;;;15.10;77.50;;;;;;5010697;28;20033;-72
2022/04/25 09:32:57;;;;;;;5.97;3.78;;;15.10;77.50;;;;;;5007078;28;20116;-74
2022/04/25 09:35:29;;;;;;;6.22;3.67;;;15.10;77.50;;;;;;5010492;28;20113;-72
2022/04/25 09:37:56;;;;;;;5.95;3.58;;;15.10;77.50;;;;;;5010434;28;20029;-72
2022/04/25 09:40:24;;;;;;;6.93;3.72;;;15.10;77.60;;;;;;5011528;28;20028;-72
2022/04/25 09:43:11;;;;;;;5.90;3.75;;;15.10;77.80;;;;;;5011365;28;20068;-72
2022/04/25 09:45:40;;;;;;;6.22;3.75;;;15.10;77.90;;;;;;5010192;28;20030;-70
2022/04/25 09:48:16;;;;;;;6.63;3.95;;;15.00;77.90;;;;;;5009763;28;20022;-73
2022/04/25 09:50:43;;;;;;;5.75;3.83;;;15.00;78.00;;;;;;5011726;28;20018;-72
2022/04/25 09:53:10;;;;;;;6.40;3.72;;;15.00;78.10;;;;;;5011520;28;20087;-71
2022/04/25 09:55:38;;;;;;;6.20;4.10;;;15.00;78.10;;;;;;5011380;28;20497;-71
2022/04/25 09:58:23;;;;;;;5.68;3.60;;;15.00;78.20;;;;;;5011588;28;20030;-72
2022/04/25 10:00:53;;;;;;;6.72;4.15;;;15.00;78.30;;;;;;5010194;28;20072;-73
2022/04/25 10:03:31;;;;;;;6.03;3.80;;;14.90;78.20;;;;;;5010242;28;20022;-72
2022/04/25 10:06:01;;;;;;;5.85;3.45;;;14.90;78.20;;;;;;5011217;28;20032;-73
2022/04/25 10:08:28;;;;;;;5.97;3.70;;;14.90;78.30;;;;;;5011322;28;20096;-72
2022/04/25 10:10:56;;;;;;;5.75;3.67;;;15.00;78.40;;;;;;5011540;28;20034;-72
2022/04/25 10:13:21;;;;;;;6.45;4.00;;;14.80;78.30;;;;;;5011216;28;20076;-72
2022/04/25 10:15:48;;;;;;;5.75;3.60;;;14.90;78.40;;;;;;5010988;28;20022;-73
2022/04/25 10:18:15;;;;;;;6.50;3.97;;;14.90;78.40;;;;;;5011335;28;20014;-73
2022/04/25 10:20:42;;;;;;;5.88;3.80;;;14.90;78.40;;;;;;5011024;28;20485;-70
2022/04/25 10:23:11;;;;;;;5.90;3.70;;;14.90;78.40;;;;;;5011303;28;20037;-72
2022/04/25 10:25:38;;;;;;;6.10;3.70;;;14.90;78.40;;;;;;5009887;28;20026;-71
2022/04/25 10:28:12;;;;;;;7.05;4.00;;;14.90;78.40;;;;;;5010962;28;20030;-72
2022/04/25 10:30:44;;;;;;;5.80;3.72;;;14.90;78.40;;;;;;5009878;28;20026;-73
2022/04/25 10:33:16;;;;;;;5.65;3.72;;;14.90;78.40;;;;;;5011139;28;20034;-70
2022/04/25 10:35:43;;;;;;;7.20;4.00;;;14.90;78.40;;;;;;5009559;28;20030;-70
2022/04/25 10:44:31;;;;;;;6.90;3.90;;;14.90;78.40;;;;;;5011026;28;20033;-72
2022/04/25 10:47:06;;;;;;;7.00;4.05;;;14.90;78.50;;;;;;5007804;28;20058;-73
2022/04/25 10:49:32;;;;;;;5.88;3.83;;;14.90;78.40;;;;;;5009317;28;20091;-71
2022/04/25 10:51:59;;;;;;;6.53;3.88;;;14.90;78.40;;;;;;5009734;28;20021;-72
2022/04/25 10:54:28;;;;;;;5.55;3.50;;;14.90;78.40;;;;;;5011546;28;20401;-72
2022/04/25 10:57:09;;;;;;;6.20;3.90;;;14.90;78.40;;;;;;5014394;28;20026;-72
2022/04/25 10:59:37;;;;;;;6.47;4.15;;;14.90;78.40;;;;;;5013445;28;20084;-72
2022/04/25 11:02:23;;;;;;;5.90;3.85;;;14.90;78.40;;;;;;5013143;28;20400;-71
2022/04/25 11:05:11;;;;;;;6.45;4.00;;;14.90;78.40;;;;;;5013435;28;20037;-72
2022/04/25 11:07:41;;;;;;;6.60;3.95;;;14.90;78.40;;;;;;5014349;28;20042;-72
2022/04/25 11:10:09;;;;;;;6.22;4.00;;;14.90;78.70;;;;;;5013290;28;20030;-73
2022/04/25 11:12:57;;;;;;;5.90;3.80;;;14.90;78.40;;;;;;5014167;28;20505;-72
2022/04/25 11:15:38;;;;;;;6.93;4.13;;;14.90;78.40;;;;;;5014164;28;20045;-72
2022/04/25 11:18:27;;;;;;;6.47;4.07;;;14.90;78.40;;;;;;5012835;28;20033;-73
2022/04/25 11:21:14;;;;;;;6.03;3.65;;;14.90;78.30;;;;;;5012994;28;20037;-71
2022/04/25 11:23:47;;;;;;;6.57;3.85;;;14.90;78.30;;;;;;5014296;28;20101;-72
2022/04/25 11:26:22;;;;;;;7.07;3.92;;;15.00;78.40;;;;;;5013950;28;20017;-72
2022/04/25 11:29:03;;;;;;;6.90;3.90;;;14.90;78.30;;;;;;5014043;28;20076;-72
2022/04/25 11:31:32;;;;;;;6.18;3.80;;;14.90;78.20;;;;;;5014014;28;20398;-73
2022/04/25 11:34:02;;;;;;;6.28;3.88;;;15.00;78.20;;;;;;5014192;28;20075;-72
2022/04/25 11:36:31;;;;;;;6.72;4.30;;;15.00;78.10;;;;;;5013625;28;20032;-73
2022/04/25 11:41:42;;;;;;;6.40;3.83;;;15.00;77.90;;;;;;5014232;28;20444;-68
2022/04/25 11:44:08;;;;;;;6.25;3.92;;;15.00;77.80;;;;;;5014001;28;20030;-72
2022/04/25 11:46:35;;;;;;;6.47;4.28;;;15.10;78.30;;;;;;5012344;28;20140;-73
2022/04/25 11:49:02;;;;;;;6.40;4.10;;;15.10;77.70;;;;;;5012146;28;20029;-70
2022/04/25 11:51:39;;;;;;;6.30;4.30;;;15.10;77.60;;;;;;5013529;28;20033;-72
2022/04/25 11:54:07;;;;;;;5.88;3.70;;;15.10;77.60;;;;;;5012481;28;20030;-72
2022/04/25 11:56:34;;;;;;;6.68;3.83;;;15.10;77.50;;;;;;5012045;28;20033;-69
2022/04/25 11:59:06;;;;;;;6.70;3.97;;;15.10;77.50;;;;;;5012199;28;20657;-73
2022/04/25 12:01:36;;;;;;;;;;;15.10;77.50;;;;;;5013872;28;20025;-73
2022/04/25 12:04:35;;;;;;;6.30;3.72;;;15.10;77.50;;;;;;5013619;28;19957;-72
2022/04/25 12:07:02;;;;;;;6.65;3.83;;;15.10;77.60;;;;;;5012891;28;20030;-72
2022/04/25 12:15:34;;;;;;;6.78;4.00;;;15.10;77.70;;;;;;5013531;28;20120;-72
2022/04/25 12:18:25;;;;;;;6.90;4.20;;;15.00;77.80;;;;;;5011821;28;20049;-72
2022/04/25 12:20:59;;;;;;;6.38;3.95;;;15.00;77.90;;;;;;5011782;28;20257;-72
2022/04/25 12:23:41;;;;;;;6.00;3.90;;;15.00;78.00;;;;;;5012071;28;20022;-71
2022/04/25 12:26:26;;;;;;;6.28;4.05;;;15.00;78.00;;;;;;5012105;28;20017;-72
2022/04/25 12:29:06;;;;;;;6.40;4.00;;;15.00;78.10;;;;;;5013024;28;20037;-72
2022/04/25 12:31:47;;;;;;;7.40;4.60;;;15.00;78.20;;;;;;5013095;28;20536;-73
2022/04/25 12:34:14;;;;;;;6.38;4.22;;;15.00;78.20;;;;;;5011565;28;20053;-73
2022/04/25 12:36:52;;;;;;;6.68;4.20;;;14.90;78.20;;;;;;5012607;28;20029;-73
2022/04/25 12:39:18;;;;;;;5.72;4.03;;;14.90;78.30;;;;;;5011411;28;20076;-72
2022/04/25 12:41:53;;;;;;;6.78;4.32;;;14.90;78.30;;;;;;5010484;28;20034;-69
2022/04/25 12:44:19;;;;;;;6.72;4.05;;;14.90;78.30;;;;;;5008709;28;20026;-73
2022/04/25 12:46:51;;;;;;;5.90;3.70;;;14.90;78.40;;;;;;4992723;28;20030;-71
2022/04/25 12:49:43;;;;;;;6.68;4.40;;;14.90;78.30;;;;;;4995805;28;20508;-73
2022/04/25 12:52:10;;;;;;;6.68;4.03;;;14.90;78.40;;;;;;5010811;28;20033;-73
2022/04/25 12:54:42;;;;;;;6.82;4.18;;;14.90;78.40;;;;;;5011986;28;20087;-73
2022/04/25 12:57:18;;;;;;;7.53;4.38;;;14.90;78.40;;;;;;5010692;28;20532;-74
2022/04/25 12:59:52;;;;;;;6.85;4.38;;;14.90;78.40;;;;;;5010938;28;20045;-74
2022/04/25 13:02:20;;;;;;;6.88;4.18;;;14.90;78.40;;;;;;5042194;28;20065;-73
2022/04/25 13:05:00;;;;;;;6.30;3.97;;;14.90;78.40;;;;;;5011235;28;20029;-74
2022/04/25 13:07:33;;;;;;;6.55;4.45;;;14.90;78.40;;;;;;5010885;28;20551;-72
2022/04/25 13:10:03;;;;;;;6.22;4.28;;;14.90;78.40;;;;;;5012381;28;20022;-74
2022/04/25 13:12:32;;;;;;;6.93;4.50;;;14.90;78.40;;;;;;5011097;28;20037;-74
2022/04/25 13:14:59;;;;;;;6.35;4.22;;;14.90;78.40;;;;;;5012321;28;20624;-73
2022/04/25 13:17:24;;;;;;;6.38;4.25;;;14.90;78.40;;;;;;5011429;28;20121;-72
2022/04/25 13:19:50;;;;;;;7.13;4.07;;;14.90;78.40;;;;;;5006864;28;20161;-73
2022/04/25 13:22:15;;;;;;;6.65;4.20;;;14.90;78.40;;;;;;4991288;28;20033;-71
2022/04/25 13:24:43;;;;;;;6.30;4.07;;;14.90;78.40;;;;;;4992559;28;20030;-74
2022/04/25 13:27:09;;;;;;;6.57;4.38;;;14.90;78.30;;;;;;4992191;28;20512;-73
2022/04/25 13:29:35;;;;;;;6.43;4.15;;;14.90;78.30;;;;;;4992364;28;20035;-73